Time;durP1;ratioP1;P1;durP2;ratioP2;P2;SDS_P1;SDS_P2;PMS_P1;PMS_P2;Temp;Humidity;BMP_temperature;BMP_pressure;BME280_temperature;BME280_humidity;BME280_pressure;Samples;Min_cycle;Max_cycle;Signal;HPM_P1;HPM_P2
2023/08/31 00:01:00;;;;;;;7.27;3.13;;;11.70;99.90;;;;;;6095338;23;20451;-93
2023/08/31 00:03:25;;;;;;;6.35;2.78;;;11.70;99.90;;;;;;6093650;23;20372;-93
2023/08/31 00:05:51;;;;;;;5.40;2.65;;;11.50;99.90;;;;;;6094916;23;20387;-92
2023/08/31 00:08:17;;;;;;;6.93;3.40;;;11.60;99.90;;;;;;6119568;23;20401;-95
2023/08/31 00:10:43;;;;;;;8.95;3.80;;;11.50;99.90;;;;;;6093323;23;20373;-93
2023/08/31 00:13:08;;;;;;;10.20;3.93;;;11.60;99.90;;;;;;6119852;23;20416;-92
2023/08/31 00:15:35;;;;;;;7.15;3.50;;;11.40;99.90;;;;;;6092939;23;20449;-93
2023/08/31 00:18:04;;;;;;;7.03;3.70;;;12.00;99.90;;;;;;6119679;23;20383;-92
2023/08/31 00:20:31;;;;;;;9.27;4.45;;;11.50;99.90;;;;;;6092548;23;20467;-92
2023/08/31 00:22:58;;;;;;;7.43;3.60;;;11.70;99.90;;;;;;6095402;23;20372;-92
2023/08/31 00:25:23;;;;;;;8.70;3.60;;;11.30;99.90;;;;;;6095027;23;20369;-91
2023/08/31 00:27:49;;;;;;;9.25;3.30;;;11.20;99.90;;;;;;6096043;23;20400;-92
2023/08/31 00:30:15;;;;;;;8.00;3.43;;;12.10;99.90;;;;;;6097437;23;20381;-91
2023/08/31 00:32:42;;;;;;;8.73;3.55;;;11.40;99.90;;;;;;6118342;23;20392;-92
2023/08/31 00:35:09;;;;;;;11.13;5.40;;;11.20;99.90;;;;;;6096959;23;20452;-93
2023/08/31 00:37:35;;;;;;;5.93;3.25;;;11.00;99.90;;;;;;6094689;23;20425;-93
2023/08/31 00:40:01;;;;;;;11.55;4.93;;;11.30;99.90;;;;;;6096519;23;20390;-90
2023/08/31 00:42:29;;;;;;;5.82;2.88;;;10.90;99.90;;;;;;6095256;23;20436;-91
2023/08/31 00:44:55;;;;;;;7.63;3.03;;;10.80;99.90;;;;;;6095793;23;20408;-91
2023/08/31 00:47:20;;;;;;;6.90;2.70;;;11.00;99.90;;;;;;6120973;23;20471;-92
2023/08/31 00:49:47;;;;;;;13.07;4.17;;;10.90;99.90;;;;;;6095245;23;20381;-92
2023/08/31 00:52:13;;;;;;;18.47;3.63;;;10.70;99.90;;;;;;6096865;23;20774;-92
2023/08/31 00:54:39;;;;;;;8.57;3.97;;;11.00;99.90;;;;;;6118804;23;20369;-92
2023/08/31 00:57:04;;;;;;;5.95;2.58;;;11.60;99.90;;;;;;6121054;23;20369;-91
2023/08/31 00:59:30;;;;;;;26.80;3.63;;;10.90;99.90;;;;;;6119179;23;20702;-91
2023/08/31 01:02:07;;;;;;;11.55;2.70;;;10.60;99.90;;;;;;6120921;23;20372;-91
2023/08/31 01:05:03;;;;;;;7.20;2.20;;;10.80;99.90;;;;;;6096321;23;20389;-91
2023/08/31 01:07:53;;;;;;;5.63;1.73;;;10.50;99.90;;;;;;6093817;23;20408;-91
2023/08/31 01:10:49;;;;;;;4.22;1.70;;;10.50;99.90;;;;;;6096481;23;20714;-92
2023/08/31 01:13:19;;;;;;;6.60;2.78;;;10.40;99.90;;;;;;6095697;23;20380;-91
2023/08/31 01:15:49;;;;;;;5.15;1.50;;;10.40;99.90;;;;;;6094085;23;20375;-91
2023/08/31 01:18:17;;;;;;;6.22;2.65;;;10.70;99.90;;;;;;6095797;23;20377;-92
2023/08/31 01:20:58;;;;;;;6.65;2.90;;;10.50;99.90;;;;;;6093853;23;20395;-91
2023/08/31 01:23:33;;;;;;;9.75;3.08;;;10.30;99.90;;;;;;6096160;23;20459;-91
2023/08/31 01:25:59;;;;;;;6.38;2.47;;;10.30;99.90;;;;;;6095084;23;20384;-91
2023/08/31 01:28:26;;;;;;;3.50;1.83;;;10.40;99.90;;;;;;6118875;23;20730;-91
2023/08/31 01:30:52;;;;;;;7.15;3.00;;;10.40;99.90;;;;;;6095982;23;20384;-91
2023/08/31 01:33:17;;;;;;;6.13;2.03;;;10.50;99.90;;;;;;6093559;23;20369;-91
2023/08/31 01:35:48;;;;;;;21.60;3.40;;;10.40;99.90;;;;;;6095866;23;20823;-92
2023/08/31 01:38:18;;;;;;;6.70;2.63;;;10.40;99.90;;;;;;6093475;23;20384;-92
2023/08/31 01:40:54;;;;;;;7.15;3.20;;;10.50;99.90;;;;;;6095789;23;20404;-93
2023/08/31 01:43:22;;;;;;;4.93;2.13;;;10.20;99.90;;;;;;6095348;23;20381;-91
2023/08/31 01:45:48;;;;;;;7.60;2.35;;;10.40;99.90;;;;;;6094257;23;20380;-92
2023/08/31 01:48:15;;;;;;;4.60;2.03;;;10.20;99.90;;;;;;6095823;23;20704;-91
2023/08/31 01:50:40;;;;;;;6.00;2.10;;;10.20;99.90;;;;;;6094111;23;20369;-92
2023/08/31 01:53:06;;;;;;;7.45;2.78;;;10.20;99.90;;;;;;6095831;23;20504;-91
2023/08/31 01:55:32;;;;;;;5.72;2.15;;;10.30;99.90;;;;;;6093413;23;20427;-91
2023/08/31 01:57:58;;;;;;;6.25;2.33;;;10.30;99.90;;;;;;6095747;23;20384;-91
2023/08/31 02:00:26;;;;;;;5.72;1.88;;;10.70;99.90;;;;;;6094493;23;20433;-91
2023/08/31 02:02:51;;;;;;;5.65;1.45;;;10.40;99.90;;;;;;6094940;23;20472;-91
2023/08/31 02:05:17;;;;;;;4.40;1.60;;;11.10;99.90;;;;;;6095979;23;20416;-91
2023/08/31 02:07:43;;;;;;;5.25;1.23;;;10.30;99.90;;;;;;6118048;23;20404;-93
2023/08/31 02:10:09;;;;;;;5.67;1.40;;;10.60;99.90;;;;;;6095847;23;20706;-92
2023/08/31 02:12:36;;;;;;;4.22;1.70;;;10.40;99.90;;;;;;6093466;23;20377;-91
2023/08/31 02:15:06;;;;;;;4.90;1.77;;;10.60;99.90;;;;;;6096033;23;20377;-91
2023/08/31 02:17:32;;;;;;;4.82;1.25;;;10.40;99.90;;;;;;6118375;23;20459;-90
2023/08/31 02:19:57;;;;;;;2.92;1.38;;;10.70;99.90;;;;;;6119717;23;20755;-92
2023/08/31 02:22:23;;;;;;;5.53;1.90;;;11.30;99.90;;;;;;6095217;23;20373;-91
2023/08/31 02:24:49;;;;;;;7.88;2.88;;;10.40;99.90;;;;;;6093802;23;20408;-90
2023/08/31 02:27:15;;;;;;;4.73;1.83;;;10.40;99.90;;;;;;6095710;23;20431;-91
2023/08/31 02:29:40;;;;;;;4.13;1.30;;;10.50;99.90;;;;;;6093373;23;20501;-93
2023/08/31 02:32:06;;;;;;;6.05;2.20;;;10.70;99.90;;;;;;6095583;23;20842;-92
2023/08/31 02:34:32;;;;;;;3.95;1.20;;;10.40;99.90;;;;;;6093142;23;20755;-93
2023/08/31 02:36:58;;;;;;;3.67;1.50;;;11.00;99.90;;;;;;6095917;23;20413;-91
2023/08/31 02:39:23;;;;;;;6.15;1.70;;;10.50;99.90;;;;;;6094241;23;20375;-92
2023/08/31 02:41:49;;;;;;;4.45;1.70;;;10.70;99.90;;;;;;6118788;23;20393;-92
2023/08/31 02:44:14;;;;;;;5.03;1.93;;;10.40;99.90;;;;;;6095773;23;20440;-91
2023/08/31 02:46:40;;;;;;;3.15;1.25;;;10.20;99.90;;;;;;6093677;23;20404;-92
2023/08/31 02:49:06;;;;;;;4.47;1.60;;;10.70;99.90;;;;;;6119569;23;20393;-91
2023/08/31 02:51:31;;;;;;;3.83;1.02;;;10.40;99.90;;;;;;6093506;23;20377;-91
2023/08/31 02:53:57;;;;;;;5.30;1.55;;;10.80;99.90;;;;;;6095612;23;20808;-92
2023/08/31 02:56:23;;;;;;;4.53;1.80;;;10.30;99.90;;;;;;6093367;23;20381;-91
2023/08/31 02:58:48;;;;;;;4.95;1.85;;;10.60;99.90;;;;;;6094942;23;20683;-91
2023/08/31 03:01:14;;;;;;;4.63;1.63;;;11.70;99.90;;;;;;6094470;23;20416;-91
2023/08/31 03:03:41;;;;;;;3.70;0.87;;;11.40;99.90;;;;;;6118278;23;20787;-92
2023/08/31 03:06:10;;;;;;;5.55;1.98;;;10.80;99.90;;;;;;6095457;23;20373;-91
2023/08/31 03:08:37;;;;;;;4.53;1.63;;;11.00;99.90;;;;;;6093484;23;20401;-92
2023/08/31 03:11:04;;;;;;;5.00;1.20;;;11.00;99.90;;;;;;6095486;23;20385;-92
2023/08/31 03:13:31;;;;;;;4.68;1.15;;;11.20;99.90;;;;;;6092671;23;20380;-92
2023/08/31 03:15:57;;;;;;;4.93;1.52;;;11.10;99.90;;;;;;6095872;23;20392;-92
2023/08/31 03:18:23;;;;;;;6.82;1.70;;;10.70;99.90;;;;;;6094266;23;20381;-91
2023/08/31 03:20:49;;;;;;;5.38;1.48;;;10.50;99.90;;;;;;6094335;23;20376;-92
2023/08/31 03:23:15;;;;;;;7.20;1.85;;;11.00;99.90;;;;;;6095525;23;20412;-92
2023/08/31 03:25:41;;;;;;;6.13;1.77;;;10.90;99.90;;;;;;6093096;23;20377;-92
2023/08/31 03:28:07;;;;;;;5.35;1.45;;;10.80;99.90;;;;;;6095637;23;20745;-91
2023/08/31 03:30:32;;;;;;;4.63;1.80;;;11.40;99.90;;;;;;6093113;23;20379;-92
2023/08/31 03:32:58;;;;;;;5.27;1.57;;;10.80;99.90;;;;;;6095372;23;20381;-92
2023/08/31 03:35:26;;;;;;;8.20;2.10;;;10.90;99.90;;;;;;6093092;23;20376;-93
2023/08/31 03:37:55;;;;;;;9.60;2.05;;;10.60;99.90;;;;;;6119084;23;20381;-92
2023/08/31 03:40:22;;;;;;;6.55;2.13;;;10.70;99.90;;;;;;6094960;23;20387;-92
2023/08/31 03:42:49;;;;;;;6.97;2.00;;;11.10;99.90;;;;;;6093283;23;20476;-92
2023/08/31 03:45:14;;;;;;;6.88;1.52;;;10.10;99.90;;;;;;6120013;23;20384;-92
2023/08/31 03:47:40;;;;;;;8.77;2.33;;;10.40;99.90;;;;;;6093494;23;20396;-93
2023/08/31 03:50:06;;;;;;;9.65;2.95;;;10.40;99.90;;;;;;6095297;23;20460;-92
2023/08/31 03:52:32;;;;;;;40.53;3.30;;;10.30;99.90;;;;;;6093178;23;20844;-93
2023/08/31 03:54:58;;;;;;;33.63;2.97;;;10.50;99.90;;;;;;6095028;23;20404;-92
2023/08/31 03:57:23;;;;;;;8.70;3.13;;;10.30;99.90;;;;;;6094258;23;20706;-93
2023/08/31 03:59:49;;;;;;;39.63;3.70;;;10.60;99.90;;;;;;6093558;23;20431;-93
2023/08/31 04:02:15;;;;;;;34.60;4.18;;;10.30;99.90;;;;;;6096962;23;20424;-92
2023/08/31 04:04:40;;;;;;;19.27;6.45;;;10.10;99.90;;;;;;6119099;23;20435;-91
2023/08/31 04:07:06;;;;;;;14.63;6.47;;;10.30;99.90;;;;;;6121406;23;20403;-92
2023/08/31 04:09:32;;;;;;;6.65;4.22;;;10.20;99.90;;;;;;6094550;23;20427;-91
2023/08/31 04:11:58;;;;;;;17.45;7.07;;;9.70;99.90;;;;;;6121057;23;20376;-92
2023/08/31 04:14:26;;;;;;;10.07;4.40;;;11.00;99.90;;;;;;6095365;23;20373;-92
2023/08/31 04:16:52;;;;;;;10.13;4.22;;;10.20;99.90;;;;;;6096426;23;20381;-91
2023/08/31 04:19:17;;;;;;;12.70;4.93;;;9.80;99.90;;;;;;6096283;23;20387;-92
2023/08/31 04:21:43;;;;;;;11.53;3.80;;;9.70;99.90;;;;;;6119649;23;20372;-91
2023/08/31 04:24:09;;;;;;;27.35;8.88;;;10.20;99.90;;;;;;6096877;23;20373;-92
2023/08/31 04:26:35;;;;;;;16.65;6.72;;;10.00;99.90;;;;;;6094546;23;20690;-92
2023/08/31 04:29:03;;;;;;;29.73;7.45;;;9.90;99.90;;;;;;6096696;23;20459;-92
2023/08/31 04:31:28;;;;;;;14.18;4.65;;;10.00;99.90;;;;;;6119080;23;20753;-91
2023/08/31 04:33:54;;;;;;;16.40;4.67;;;9.90;99.90;;;;;;6096681;23;20467;-92
2023/08/31 04:36:23;;;;;;;17.35;5.22;;;9.90;99.90;;;;;;6119929;23;20464;-91
2023/08/31 04:38:49;;;;;;;11.52;4.13;;;10.00;99.90;;;;;;6095056;23;20456;-91
2023/08/31 04:41:15;;;;;;;9.88;4.55;;;9.90;99.90;;;;;;6096319;23;20380;-92
2023/08/31 04:43:41;;;;;;;10.35;4.68;;;10.10;99.90;;;;;;6094672;23;20827;-91
2023/08/31 04:46:06;;;;;;;92.22;7.97;;;10.70;99.90;;;;;;6096213;23;20885;-92
2023/08/31 04:48:32;;;;;;;63.57;7.50;;;9.90;99.90;;;;;;6094221;23;20400;-91
2023/08/31 04:50:58;;;;;;;165.57;11.15;;;10.00;99.90;;;;;;6096235;23;20850;-92
2023/08/31 04:53:25;;;;;;;32.63;7.10;;;10.10;99.90;;;;;;6094755;23;20404;-91
2023/08/31 04:55:51;;;;;;;16.50;6.30;;;10.00;99.90;;;;;;6095946;23;20381;-92
2023/08/31 04:58:17;;;;;;;47.78;8.70;;;9.80;99.90;;;;;;6096247;23;20388;-92
2023/08/31 05:00:44;;;;;;;11.60;5.82;;;9.80;99.90;;;;;;6118948;23;20381;-91
2023/08/31 05:03:10;;;;;;;6.72;4.00;;;10.10;99.90;;;;;;6120771;23;20404;-93
2023/08/31 05:05:35;;;;;;;10.37;5.33;;;10.00;99.90;;;;;;6118681;23;20699;-92
2023/08/31 05:08:02;;;;;;;12.50;5.80;;;10.20;99.90;;;;;;6096987;23;20400;-92
2023/08/31 05:10:28;;;;;;;6.32;3.95;;;10.40;99.90;;;;;;6094055;23;20416;-93
2023/08/31 05:12:54;;;;;;;11.82;6.28;;;10.20;99.90;;;;;;6096307;23;20388;-91
2023/08/31 05:15:19;;;;;;;10.60;5.33;;;10.30;99.90;;;;;;6119732;23;20377;-92
2023/08/31 05:17:45;;;;;;;17.87;7.57;;;10.80;99.90;;;;;;6095278;23;20521;-92
2023/08/31 05:20:11;;;;;;;18.63;8.18;;;10.00;99.90;;;;;;6096355;23;20375;-91
2023/08/31 05:22:36;;;;;;;12.53;6.50;;;10.50;99.90;;;;;;6093774;23;20380;-93
2023/08/31 05:25:04;;;;;;;18.43;7.67;;;10.60;99.90;;;;;;6096323;23;20385;-92
2023/08/31 05:27:29;;;;;;;19.63;7.90;;;10.60;99.90;;;;;;6094085;23;20810;-94
2023/08/31 05:29:55;;;;;;;15.73;7.23;;;11.10;99.90;;;;;;6095520;23;20486;-93
2023/08/31 05:32:21;;;;;;;15.98;6.65;;;11.40;99.90;;;;;;6093731;23;20372;-94
2023/08/31 05:34:46;;;;;;;13.67;6.83;;;12.00;99.90;;;;;;6094996;23;20933;-92
2023/08/31 05:37:13;;;;;;;20.50;8.30;;;11.10;99.90;;;;;;6095762;23;20435;-93
2023/08/31 05:39:38;;;;;;;17.47;6.63;;;11.10;99.90;;;;;;6095842;23;20424;-94
2023/08/31 05:42:04;;;;;;;14.77;5.63;;;10.90;99.90;;;;;;6100322;23;20381;-92
2023/08/31 05:44:30;;;;;;;16.48;6.53;;;11.30;99.90;;;;;;6098386;23;20458;-95
2023/08/31 05:46:55;;;;;;;17.15;7.10;;;11.60;99.90;;;;;;6100592;23;20437;-94
2023/08/31 05:49:21;;;;;;;18.67;6.67;;;11.40;99.90;;;;;;6098348;23;20374;-94
2023/08/31 05:51:47;;;;;;;19.13;6.85;;;11.30;99.90;;;;;;6100691;23;20425;-95
2023/08/31 05:54:13;;;;;;;20.30;7.43;;;11.30;99.90;;;;;;6099038;23;20430;-93
2023/08/31 05:56:41;;;;;;;17.23;7.17;;;11.20;99.90;;;;;;6099763;23;20997;-94
2023/08/31 05:59:07;;;;;;;18.05;6.45;;;11.60;99.90;;;;;;6100255;23;20410;-94
2023/08/31 06:01:38;;;;;;;17.65;7.93;;;11.00;99.90;;;;;;6097751;23;20375;-93
2023/08/31 06:04:05;;;;;;;16.92;7.85;;;11.60;99.90;;;;;;6100504;23;20701;-94
2023/08/31 06:06:32;;;;;;;13.40;6.38;;;11.80;99.90;;;;;;6097571;23;20379;-95
2023/08/31 06:08:58;;;;;;;15.48;6.07;;;11.50;99.90;;;;;;6100243;23;20398;-94
2023/08/31 06:11:23;;;;;;;12.38;5.53;;;11.90;99.90;;;;;;6098519;23;20375;-95
2023/08/31 06:13:49;;;;;;;16.13;5.77;;;12.20;99.90;;;;;;6100524;23;20379;-92
2023/08/31 06:16:15;;;;;;;13.20;4.57;;;12.30;99.90;;;;;;6100540;23;20387;-94
2023/08/31 06:18:40;;;;;;;10.87;4.40;;;12.30;99.90;;;;;;6098709;23;20391;-93
2023/08/31 06:21:06;;;;;;;10.57;3.40;;;12.70;99.90;;;;;;6100275;23;20442;-95
2023/08/31 06:23:32;;;;;;;11.93;3.88;;;12.80;99.90;;;;;;6097440;23;20911;-93
2023/08/31 06:25:57;;;;;;;8.27;3.37;;;13.20;99.90;;;;;;6100056;23;20379;-93
2023/08/31 06:28:23;;;;;;;8.60;2.80;;;13.40;99.90;;;;;;6097834;23;20391;-93
2023/08/31 06:30:49;;;;;;;8.47;2.50;;;13.40;99.90;;;;;;6123903;23;20371;-92
2023/08/31 06:33:15;;;;;;;7.63;2.57;;;13.20;99.90;;;;;;6097579;23;20371;-92
2023/08/31 06:35:41;;;;;;;7.38;2.30;;;13.30;99.90;;;;;;6099041;23;20422;-92
2023/08/31 06:38:07;;;;;;;7.53;2.20;;;13.90;99.90;;;;;;6123999;23;20371;-91
2023/08/31 06:40:33;;;;;;;7.78;2.50;;;13.70;99.90;;;;;;6092659;23;20463;-93
2023/08/31 06:42:59;;;;;;;5.97;1.88;;;13.60;99.90;;;;;;6094415;23;20862;-90
2023/08/31 06:45:25;;;;;;;5.20;1.00;;;14.00;99.90;;;;;;6116420;23;20380;-90
2023/08/31 06:47:50;;;;;;;4.72;1.35;;;14.40;99.90;;;;;;6093923;23;20912;-91
2023/08/31 06:50:16;;;;;;;5.72;1.30;;;14.30;99.90;;;;;;6115344;23;20882;-91
2023/08/31 06:52:42;;;;;;;5.77;1.70;;;14.10;99.90;;;;;;6117893;23;20400;-92
2023/08/31 06:55:08;;;;;;;7.05;1.40;;;14.90;99.90;;;;;;6093230;23;20881;-91
2023/08/31 06:57:34;;;;;;;5.82;0.93;;;14.80;99.90;;;;;;6117856;23;20388;-89
2023/08/31 07:00:00;;;;;;;5.28;1.50;;;14.60;99.90;;;;;;6093732;23;20373;-88
2023/08/31 07:02:26;;;;;;;5.97;1.20;;;14.50;99.90;;;;;;6091736;23;20372;-90
2023/08/31 07:04:52;;;;;;;4.22;1.10;;;15.00;99.90;;;;;;6093144;23;20412;-90
2023/08/31 07:07:18;;;;;;;4.45;0.80;;;15.00;99.90;;;;;;6091350;23;20718;-90
2023/08/31 07:09:45;;;;;;;4.30;0.60;;;15.30;99.90;;;;;;6117623;23;20369;-90
2023/08/31 07:12:11;;;;;;;4.72;0.98;;;14.70;99.90;;;;;;6092491;23;20372;-89
2023/08/31 07:14:37;;;;;;;5.55;0.50;;;15.40;99.90;;;;;;6093381;23;20411;-90
2023/08/31 07:17:03;;;;;;;5.03;0.60;;;15.30;99.90;;;;;;6093913;23;20372;-90
2023/08/31 07:19:28;;;;;;;3.35;0.50;;;15.50;99.90;;;;;;6091602;23;20383;-90
2023/08/31 07:21:57;;;;;;;4.07;0.40;;;15.30;99.90;;;;;;6093615;23;20412;-90
2023/08/31 07:24:24;;;;;;;3.85;0.32;;;15.70;99.90;;;;;;6091354;23;20424;-90
2023/08/31 07:26:50;;;;;;;3.08;0.30;;;15.70;99.90;;;;;;6118531;23;20368;-91
2023/08/31 07:29:16;;;;;;;3.00;0.30;;;15.90;99.90;;;;;;6092257;23;20397;-90
2023/08/31 07:31:41;;;;;;;2.42;0.35;;;15.80;99.90;;;;;;6093485;23;20450;-91
2023/08/31 07:34:07;;;;;;;3.92;0.40;;;16.10;99.90;;;;;;6092542;23;20705;-89
2023/08/31 07:36:33;;;;;;;2.80;0.40;;;16.30;99.90;;;;;;6094362;23;20383;-91
2023/08/31 07:38:59;;;;;;;3.55;0.30;;;15.90;99.90;;;;;;6096821;23;20426;-90
2023/08/31 07:41:25;;;;;;;3.07;0.40;;;15.80;99.90;;;;;;6116297;23;20885;-89
2023/08/31 07:43:50;;;;;;;3.60;0.40;;;16.70;99.90;;;;;;6096435;23;20377;-91
2023/08/31 07:46:17;;;;;;;2.87;0.30;;;16.40;99.90;;;;;;6094234;23;20408;-93
2023/08/31 07:48:43;;;;;;;3.03;0.30;;;16.30;99.90;;;;;;6096789;23;20789;-92
2023/08/31 07:51:09;;;;;;;2.42;0.30;;;16.10;99.90;;;;;;6094883;23;20373;-91
2023/08/31 07:53:34;;;;;;;3.13;0.40;;;16.50;99.90;;;;;;6096070;23;20388;-91
2023/08/31 07:56:00;;;;;;;3.67;0.40;;;16.70;99.90;;;;;;6096443;23;20838;-92
2023/08/31 07:58:26;;;;;;;1.98;0.22;;;16.40;99.90;;;;;;6094479;23;20956;-92
2023/08/31 08:00:56;;;;;;;2.63;0.30;;;16.80;99.90;;;;;;6096356;23;20459;-92
2023/08/31 08:03:23;;;;;;;3.75;0.32;;;16.90;99.90;;;;;;6093935;23;20373;-92
2023/08/31 08:05:48;;;;;;;3.85;0.30;;;16.90;99.90;;;;;;6096730;23;20392;-93
2023/08/31 08:08:14;;;;;;;2.03;0.40;;;17.00;99.90;;;;;;6094121;23;20400;-93
2023/08/31 08:10:40;;;;;;;3.08;0.20;;;17.00;99.90;;;;;;6096089;23;20375;-92
2023/08/31 08:13:06;;;;;;;2.55;0.20;;;17.10;99.90;;;;;;6096032;23;20412;-95
2023/08/31 08:15:32;;;;;;;2.60;0.30;;;17.30;99.90;;;;;;6095435;23;20365;-92
2023/08/31 08:17:57;;;;;;;2.42;0.20;;;17.60;99.90;;;;;;6096669;23;20384;-92
2023/08/31 08:20:24;;;;;;;1.93;0.20;;;17.40;99.90;;;;;;6094143;23;20404;-92
2023/08/31 08:22:53;;;;;;;2.80;0.20;;;17.90;99.90;;;;;;6096491;23;20730;-91
2023/08/31 08:25:22;;;;;;;5.05;0.20;;;18.00;99.90;;;;;;6093874;23;20373;-92
2023/08/31 08:27:48;;;;;;;1.67;0.10;;;17.90;99.90;;;;;;6096406;23;20404;-92
2023/08/31 08:30:15;;;;;;;1.00;0.22;;;17.30;99.90;;;;;;6094391;23;20913;-94
2023/08/31 08:32:41;;;;;;;4.38;0.28;;;16.30;99.90;;;;;;6095652;23;20381;-91
2023/08/31 08:35:07;;;;;;;1.77;0.20;;;16.00;99.90;;;;;;6096459;23;20369;-92
2023/08/31 08:37:33;;;;;;;4.35;0.45;;;15.60;99.90;;;;;;6094271;23;20482;-92
2023/08/31 08:39:59;;;;;;;2.30;0.30;;;15.80;99.90;;;;;;6099883;23;20402;-93
2023/08/31 08:42:25;;;;;;;3.40;0.40;;;15.10;99.90;;;;;;6098656;23;20820;-93
2023/08/31 08:44:52;;;;;;;2.00;0.40;;;15.00;99.90;;;;;;6102120;23;20487;-90
2023/08/31 08:47:20;;;;;;;2.42;0.20;;;15.40;99.90;;;;;;6121189;23;20395;-93
2023/08/31 08:49:47;;;;;;;1.75;0.35;;;15.80;99.90;;;;;;6100440;23;20389;-92
2023/08/31 08:52:14;;;;;;;3.37;0.30;;;15.90;99.90;;;;;;6099808;23;20366;-92
2023/08/31 08:54:40;;;;;;;2.88;0.30;;;15.80;99.90;;;;;;6098796;23;20363;-91
2023/08/31 08:57:06;;;;;;;3.47;0.40;;;16.30;99.90;;;;;;6100026;23;20764;-94
2023/08/31 08:59:32;;;;;;;2.92;0.30;;;16.30;99.90;;;;;;6097575;23;21207;-92
2023/08/31 09:01:57;;;;;;;2.97;0.30;;;16.90;99.90;;;;;;6099802;23;20417;-93
2023/08/31 09:04:23;;;;;;;5.20;0.40;;;16.90;99.90;;;;;;6096438;23;20469;-92
2023/08/31 09:06:50;;;;;;;2.13;0.30;;;17.20;99.90;;;;;;6100275;23;20415;-94
2023/08/31 09:09:17;;;;;;;3.58;0.50;;;17.30;99.90;;;;;;6098480;23;20493;-92
2023/08/31 09:11:43;;;;;;;4.55;0.40;;;17.70;99.90;;;;;;6100506;23;20689;-91
2023/08/31 09:14:16;;;;;;;3.85;0.40;;;17.20;99.90;;;;;;6126882;23;20373;-92
2023/08/31 09:16:46;;;;;;;3.53;0.30;;;17.20;99.90;;;;;;6097785;23;20376;-90
2023/08/31 09:19:23;;;;;;;4.38;0.30;;;17.30;99.90;;;;;;6100416;23;20778;-92
2023/08/31 09:21:50;;;;;;;1.55;0.20;;;17.40;99.90;;;;;;6097594;23;20410;-90
2023/08/31 09:24:17;;;;;;;2.75;0.20;;;17.30;99.90;;;;;;6099548;23;20382;-90
2023/08/31 09:26:48;;;;;;;3.15;0.20;;;17.50;99.90;;;;;;6098904;23;20375;-91
2023/08/31 09:29:14;;;;;;;3.00;0.30;;;17.60;99.90;;;;;;6098928;23;20398;-92
2023/08/31 09:31:44;;;;;;;2.65;0.40;;;16.90;99.90;;;;;;6100051;23;20367;-90
2023/08/31 09:34:11;;;;;;;2.13;0.38;;;17.20;99.90;;;;;;6097944;23;20454;-92
2023/08/31 09:36:37;;;;;;;3.37;0.40;;;16.80;99.90;;;;;;6100077;23;20374;-91
2023/08/31 09:39:05;;;;;;;3.03;0.40;;;17.00;99.90;;;;;;6098651;23;20820;-93
2023/08/31 09:41:30;;;;;;;3.70;0.50;;;16.90;99.90;;;;;;6099602;23;21064;-90
2023/08/31 09:44:16;;;;;;;3.03;0.30;;;17.00;99.90;;;;;;6122839;23;20454;-91
2023/08/31 09:46:42;;;;;;;1.98;0.30;;;17.40;99.90;;;;;;6098752;23;20407;-92
2023/08/31 09:49:10;;;;;;;4.60;0.50;;;17.20;99.90;;;;;;6100312;23;20395;-92
2023/08/31 09:51:39;;;;;;;3.20;0.32;;;17.10;99.90;;;;;;6097436;23;20462;-92
2023/08/31 09:54:07;;;;;;;3.20;0.30;;;16.80;99.90;;;;;;6124472;23;20772;-90
2023/08/31 09:56:34;;;;;;;2.13;0.30;;;16.90;99.90;;;;;;6097371;23;20375;-91
2023/08/31 09:59:00;;;;;;;2.30;0.20;;;17.10;99.90;;;;;;6099311;23;20367;-90
2023/08/31 10:01:26;;;;;;;2.97;0.30;;;17.00;99.90;;;;;;6099067;23;20986;-91
2023/08/31 10:03:52;;;;;;;2.90;0.35;;;17.40;99.90;;;;;;6098498;23;20384;-93
2023/08/31 10:06:20;;;;;;;4.30;0.50;;;17.40;99.90;;;;;;6099557;23;20379;-91
2023/08/31 10:08:46;;;;;;;4.50;0.60;;;17.40;99.90;;;;;;6096772;23;20830;-91
2023/08/31 10:11:14;;;;;;;2.63;0.40;;;17.30;99.90;;;;;;6099102;23;20856;-93
2023/08/31 10:13:41;;;;;;;2.33;0.22;;;17.20;99.90;;;;;;6122261;23;20704;-91
2023/08/31 10:16:07;;;;;;;1.48;0.28;;;17.10;99.90;;;;;;6123662;23;20371;-92
2023/08/31 10:18:35;;;;;;;2.03;0.30;;;16.80;99.90;;;;;;6121721;23;20462;-92
2023/08/31 10:21:02;;;;;;;3.38;0.32;;;17.20;99.90;;;;;;6099208;23;20508;-90
2023/08/31 10:23:28;;;;;;;2.72;0.22;;;17.80;99.90;;;;;;6098926;23;20398;-89
2023/08/31 10:25:54;;;;;;;3.85;0.40;;;18.20;99.90;;;;;;6097658;23;20433;-92
2023/08/31 10:28:22;;;;;;;2.05;0.22;;;18.80;99.90;;;;;;6123396;23;20469;-91
2023/08/31 10:31:08;;;;;;;4.13;0.70;;;19.70;99.90;;;;;;6096947;23;20872;-91
2023/08/31 10:33:39;;;;;;;2.35;0.30;;;19.50;99.90;;;;;;6123485;23;20379;-93
2023/08/31 10:36:12;;;;;;;3.25;0.20;;;19.90;99.90;;;;;;6123068;23;20398;-92
2023/08/31 10:38:37;;;;;;;2.43;0.20;;;20.40;99.90;;;;;;6121826;23;20379;-93
2023/08/31 10:41:06;;;;;;;2.88;0.20;;;20.50;99.90;;;;;;6123329;23;20421;-94
2023/08/31 10:43:52;;;;;;;3.33;0.30;;;21.40;99.90;;;;;;6097631;23;20901;-93
2023/08/31 10:46:19;;;;;;;2.25;0.30;;;21.70;99.90;;;;;;6099413;23;20421;-92
2023/08/31 10:48:52;;;;;;;1.65;0.20;;;21.90;93.30;;;;;;6097154;23;20804;-93
2023/08/31 10:51:20;;;;;;;2.30;0.23;;;21.70;92.20;;;;;;6098804;23;20383;-94
2023/08/31 10:53:46;;;;;;;2.25;0.30;;;21.60;87.00;;;;;;6098788;23;21010;-91
2023/08/31 10:56:12;;;;;;;3.20;0.20;;;21.00;90.50;;;;;;6097938;23;20405;-92
2023/08/31 10:58:38;;;;;;;2.70;0.20;;;21.30;93.10;;;;;;6099843;23;20375;-92
2023/08/31 11:01:03;;;;;;;2.78;0.20;;;20.70;78.20;;;;;;6098190;23;20398;-92
2023/08/31 11:03:32;;;;;;;2.30;0.20;;;20.00;93.10;;;;;;6099660;23;20705;-92
2023/08/31 11:05:58;;;;;;;1.33;0.20;;;19.80;93.50;;;;;;6097670;23;20417;-93
2023/08/31 11:08:24;;;;;;;2.23;0.20;;;20.00;95.80;;;;;;6099443;23;20395;-94
2023/08/31 11:10:52;;;;;;;1.90;0.30;;;20.40;99.90;;;;;;6097762;23;20367;-92
2023/08/31 11:13:19;;;;;;;2.38;0.25;;;21.00;99.90;;;;;;6098561;23;20378;-94
2023/08/31 11:15:46;;;;;;;1.07;0.30;;;21.40;97.60;;;;;;6099045;23;20378;-94
2023/08/31 11:18:12;;;;;;;2.50;0.20;;;21.30;86.00;;;;;;6096854;23;20384;-94
2023/08/31 11:20:38;;;;;;;1.50;0.20;;;21.40;86.70;;;;;;6099895;23;20475;-93
2023/08/31 11:23:04;;;;;;;1.53;0.20;;;21.20;91.80;;;;;;6096697;23;20367;-92
2023/08/31 11:25:33;;;;;;;1.08;0.20;;;21.20;85.80;;;;;;6099403;23;20403;-93
2023/08/31 11:28:09;;;;;;;1.90;0.13;;;20.70;84.30;;;;;;6098024;23;20845;-92
2023/08/31 11:30:36;;;;;;;1.70;0.10;;;19.80;79.00;;;;;;6098416;23;21155;-92
2023/08/31 11:33:06;;;;;;;3.15;0.20;;;19.60;81.70;;;;;;6123800;23;20372;-90
2023/08/31 11:35:41;;;;;;;2.20;0.30;;;19.60;99.90;;;;;;6097431;23;20378;-92
2023/08/31 11:38:07;;;;;;;2.60;0.30;;;19.60;99.90;;;;;;6099358;23;20378;-90
2023/08/31 11:40:33;;;;;;;2.30;0.40;;;20.20;93.50;;;;;;6096953;23;20379;-93
2023/08/31 11:43:03;;;;;;;2.72;0.30;;;20.70;91.00;;;;;;6099294;23;20986;-91
2023/08/31 11:45:30;;;;;;;2.13;0.20;;;21.50;99.90;;;;;;6097829;23;20370;-91
2023/08/31 11:47:56;;;;;;;2.97;0.30;;;21.70;73.00;;;;;;6097715;23;21162;-93
2023/08/31 11:50:23;;;;;;;1.85;0.20;;;21.70;71.80;;;;;;6099200;23;20374;-92
2023/08/31 11:52:50;;;;;;;3.72;0.20;;;21.60;73.30;;;;;;6097041;23;20367;-91
2023/08/31 11:55:20;;;;;;;2.85;0.20;;;21.70;70.00;;;;;;6123459;23;20684;-91
2023/08/31 11:57:54;;;;;;;1.60;0.20;;;21.80;72.50;;;;;;6096939;23;20367;-92
2023/08/31 12:00:21;;;;;;;3.72;0.30;;;21.50;72.90;;;;;;6099132;23;20382;-93
2023/08/31 12:02:58;;;;;;;1.77;0.20;;;21.10;83.00;;;;;;6098454;23;20371;-93
2023/08/31 12:05:24;;;;;;;2.80;0.20;;;20.60;85.90;;;;;;6097515;23;20398;-91
2023/08/31 12:07:51;;;;;;;2.63;0.20;;;20.30;88.80;;;;;;6099206;23;20831;-92
2023/08/31 12:10:16;;;;;;;2.53;0.20;;;20.70;94.20;;;;;;6097021;23;20383;-92
2023/08/31 12:12:42;;;;;;;2.07;0.27;;;20.90;87.30;;;;;;6099637;23;20394;-92
2023/08/31 12:15:08;;;;;;;1.90;0.20;;;20.60;81.50;;;;;;6096931;23;20406;-92
2023/08/31 12:17:43;;;;;;;1.70;0.30;;;20.20;77.00;;;;;;6098856;23;20371;-91
2023/08/31 12:20:09;;;;;;;3.25;0.30;;;20.00;78.20;;;;;;6122236;23;20468;-92
2023/08/31 12:22:35;;;;;;;2.05;0.20;;;19.90;81.60;;;;;;6099018;23;20383;-93
2023/08/31 12:25:01;;;;;;;1.63;0.20;;;20.10;91.30;;;;;;6100832;23;20700;-91
2023/08/31 12:27:26;;;;;;;1.88;0.20;;;19.90;90.00;;;;;;6099148;23;20398;-91
2023/08/31 12:29:52;;;;;;;2.13;0.20;;;20.10;91.40;;;;;;6100696;23;20382;-92
2023/08/31 12:32:18;;;;;;;2.92;0.20;;;20.70;86.40;;;;;;6098823;23;20392;-91
2023/08/31 12:34:44;;;;;;;2.47;0.20;;;20.00;87.80;;;;;;6100779;23;20693;-92
2023/08/31 12:37:09;;;;;;;3.38;0.20;;;20.50;91.00;;;;;;6098843;23;20377;-91
2023/08/31 12:39:37;;;;;;;2.70;0.20;;;20.30;85.90;;;;;;6100155;23;20421;-91
2023/08/31 12:42:03;;;;;;;2.38;0.30;;;20.20;90.10;;;;;;6100042;23;20379;-91
2023/08/31 12:44:29;;;;;;;2.15;0.30;;;20.20;90.70;;;;;;6123394;23;20380;-91